Bei Facebook empfehlenBei Twitter postenGoogle plusPinterest

Das Wetter im Erzgebirge am 22.03.2017

Wetter und Klima am 22.03.2017 Holzhau im Erzgebirge (630m ü.NN)
Letzte gemessene Temperatur und Uhrzeit der Messung23:45:00 Uhr2.60 °C
Temperatur (Maximum / Höchstwert) und Uhrzeit der Messung15:00:00 Uhr6.80 °C
Temperatur (Minimum / Tiefstwert) und Uhrzeit der Messung04:00:000.70 °C
Errechneter Absolutwert der Temperaturschwankungen zwischen Tmin und Tmax des Tages6.10 K
Errechnete Tagesmitteltemperatur3.24688 °C
Gesamt - Niederschlag des Tages (in flüssiger Form)1.04 Liter / m²
Luftdruck (Maximum / Höchstwert) und Zeitpunkt der Messung13:15:00 Uhr1012.70 hPa
Luftdruck (Minimum / Tiefstwert) und Zeitpunkt der Messung00:00:00 Uhr1009.60 hPa
Errechneter Absolutwert der Luftdruckschwankungen des Tages3.10 hPa
Höchste gemessene Windgeschwindigkeit und Uhrzeit der Messung09:45:00 Uhr11.52 km/h
Errechnete Windhäufigkeit in Relation zu den Messwerten des Tages31.25000 %
Niedrigste Windkühle (Windchill) und Zeitpunkt der Messung23:00:00 Uhr0.20 °C
Taupunkt (Maximum / Höchstwert) und Uhrzeit der Messung15:00:00 Uhr3.40 °C
Taupunkt (Minimum / Tiefstwert) und Uhrzeit der Messung03:15:00-0.40 °C
Anzahl der automatisch eingelesenen Messwerte 96

Detaillierte Wetter- und Klima- Messwerte für den 22.03.2017 in Holzhau im Erzgebirge (630m ü.NN)
ZeitTemperaturLuftdruckRel. LuftfeuchteWindWindrichtungWindchillTaupunktNiederschlag l/m²
23:45:002.60 °C1012.20 hPa91.00 %4.32 km/hOSO2.60 °C1.30 °C1.04
23:30:002.60 °C1012.40 hPa92.00 %4.68 km/hSO2.60 °C1.40 °C1.04
23:15:002.50 °C1012.50 hPa91.00 %1.20 °C1.04
23:00:002.60 °C1012.40 hPa91.00 %8.28 km/hSO0.20 °C1.30 °C1.04
22:45:002.60 °C1012.20 hPa91.00 %7.20 km/hSSO0.60 °C1.30 °C1.04
22:30:002.70 °C1012.00 hPa91.00 %3.24 km/hSSO2.70 °C1.40 °C1.04
22:15:002.80 °C1011.90 hPa91.00 %8.28 km/hO0.50 °C1.50 °C1.04
22:00:002.80 °C1011.80 hPa91.00 %1.50 °C1.04
21:45:002.90 °C1012.00 hPa91.00 %1.60 °C1.04
21:30:002.90 °C1012.10 hPa91.00 %1.60 °C1.04
21:15:002.90 °C1011.90 hPa91.00 %1.60 °C1.04
21:00:002.90 °C1011.80 hPa91.00 %5.04 km/hSO1.70 °C1.60 °C1.04
20:45:002.90 °C1011.80 hPa91.00 %1.60 °C1.04
20:30:003.10 °C1012.20 hPa91.00 %1.80 °C1.04
20:15:003.00 °C1012.20 hPa91.00 %2.52 km/hSO3.00 °C1.70 °C1.04
20:00:003.00 °C1012.40 hPa91.00 %0.36 km/hOSO3.00 °C1.70 °C1.04
19:45:002.90 °C1012.30 hPa91.00 %1.60 °C1.04
19:30:002.90 °C1012.20 hPa90.00 %1.40 °C1.04
19:15:002.90 °C1012.40 hPa90.00 %1.40 °C1.04
19:00:003.00 °C1012.20 hPa89.00 %3.60 km/hSO3.00 °C1.40 °C1.04
18:45:003.10 °C1012.20 hPa89.00 %1.50 °C1.04
18:30:003.30 °C1012.20 hPa88.00 %1.50 °C0.52
18:15:003.50 °C1012.30 hPa88.00 %1.70 °C0.52
18:00:003.60 °C1012.30 hPa87.00 %1.60 °C0.52
17:45:003.80 °C1012.20 hPa87.00 %1.80 °C0.52
17:30:003.80 °C1012.20 hPa86.00 %1.70 °C0.52
17:15:004.10 °C1012.10 hPa85.00 %1.80 °C0.52
17:00:004.40 °C1012.10 hPa84.00 %1.90 °C0.52
16:45:004.50 °C1011.80 hPa83.00 %0.36 km/hSSO4.50 °C1.90 °C0.52
16:30:004.90 °C1012.10 hPa82.00 %2.10 °C0.52
16:15:005.30 °C1011.90 hPa81.00 %2.30 °C0.52
16:00:005.60 °C1011.90 hPa81.00 %2.60 °C0.52
15:45:005.90 °C1012.20 hPa80.00 %5.40 km/hSSO5.00 °C2.70 °C0.52
15:30:005.90 °C1012.20 hPa79.00 %1.08 km/hO5.90 °C2.50 °C0.52
15:15:006.30 °C1012.00 hPa79.00 %2.90 °C0.52
15:00:006.80 °C1012.20 hPa79.00 %3.40 °C0.52
14:45:006.40 °C1012.50 hPa80.00 %7.92 km/hS4.80 °C3.20 °C0.52
14:30:006.30 °C1012.40 hPa79.00 %2.90 °C0.52
14:15:006.30 °C1012.20 hPa80.00 %3.10 °C0.52
14:00:006.40 °C1012.20 hPa79.00 %3.24 km/hS6.40 °C3.00 °C0.52
13:45:006.40 °C1012.50 hPa79.00 %2.52 km/hSO6.40 °C3.00 °C0.52
13:30:006.50 °C1012.60 hPa79.00 %3.10 °C0.52
13:15:006.40 °C1012.70 hPa79.00 %3.00 °C0.52
13:00:006.20 °C1012.50 hPa80.00 %3.00 °C0.52
12:45:006.30 °C1012.60 hPa81.00 %1.44 km/hNNO6.30 °C3.30 °C0.52
12:30:005.80 °C1012.60 hPa81.00 %1.44 km/hOSO5.80 °C2.80 °C0.52
12:15:005.80 °C1012.50 hPa81.00 %2.80 °C0.52
12:00:006.10 °C1012.30 hPa81.00 %3.10 °C0.52
11:45:006.10 °C1012.20 hPa81.00 %3.60 km/hO6.10 °C3.10 °C0.52
11:30:005.80 °C1012.00 hPa83.00 %3.10 °C0.52
11:15:005.30 °C1012.10 hPa85.00 %2.16 km/hSSO5.30 °C3.00 °C0.52
11:00:004.70 °C1011.80 hPa86.00 %2.60 °C0.52
10:45:004.60 °C1012.10 hPa86.00 %7.92 km/hOSO2.70 °C2.50 °C0.52
10:30:004.70 °C1012.30 hPa87.00 %2.70 °C0.52
10:15:004.40 °C1012.20 hPa89.00 %1.44 km/hS4.40 °C2.80 °C0.52
10:00:004.20 °C1012.10 hPa89.00 %5.76 km/hSO2.90 °C2.60 °C0.52
09:45:004.10 °C1012.10 hPa90.00 %11.52 km/hS1.30 °C2.60 °C0.52
09:30:003.80 °C1011.80 hPa91.00 %1.08 km/hO3.80 °C2.50 °C0.52
09:15:003.50 °C1011.60 hPa92.00 %2.30 °C0.52
09:00:003.30 °C1011.40 hPa93.00 %5.04 km/hSO2.10 °C2.30 °C0.52
08:45:002.90 °C1011.10 hPa93.00 %1.90 °C0.52
08:30:002.90 °C1011.20 hPa93.00 %9.36 km/hOSO0.30 °C1.90 °C0.52
08:15:002.70 °C1011.10 hPa93.00 %3.24 km/hOSO2.70 °C1.70 °C0.52
08:00:002.50 °C1010.80 hPa94.00 %1.60 °C0.52
07:45:002.40 °C1010.70 hPa94.00 %5.04 km/hSSO1.10 °C1.50 °C0.52
07:30:002.10 °C1010.70 hPa94.00 %1.20 °C0.52
07:15:001.80 °C1010.70 hPa94.00 %0.90 °C0.52
07:00:001.60 °C1010.70 hPa93.00 %0.60 °C0.52
06:45:001.40 °C1010.50 hPa93.00 %0.40 °C0.52
06:30:001.40 °C1010.70 hPa93.00 %0.40 °C0.52
06:15:001.30 °C1010.50 hPa93.00 %0.30 °C0.52
06:00:001.30 °C1010.50 hPa93.00 %0.30 °C0.52
05:45:001.30 °C1010.20 hPa93.00 %0.30 °C0.52
05:30:001.10 °C1010.50 hPa93.00 %0.10 °C0.52
05:15:000.90 °C1010.20 hPa93.00 %-0.10 °C0.52
05:00:000.90 °C1010.20 hPa93.00 %-0.10 °C0.52
04:45:000.80 °C1010.00 hPa93.00 %-0.20 °C0.52
04:30:000.80 °C1010.10 hPa93.00 %-0.20 °C0.52
04:15:000.80 °C1010.20 hPa93.00 %-0.20 °C0.52
04:00:000.70 °C1010.20 hPa93.00 %-0.30 °C0.52
03:45:000.70 °C1010.00 hPa93.00 %-0.30 °C0.52
03:30:000.70 °C1010.20 hPa93.00 %-0.30 °C0.52
03:15:000.70 °C1010.00 hPa92.00 %-0.40 °C0.52
03:00:000.80 °C1009.90 hPa92.00 %-0.30 °C0.52
02:45:000.80 °C1009.80 hPa92.00 %-0.30 °C0.52
02:30:000.90 °C1009.90 hPa92.00 %-0.20 °C0.52
02:15:000.90 °C1010.30 hPa92.00 %-0.20 °C0.52
02:00:001.20 °C1010.30 hPa92.00 %1.08 km/hS1.20 °C0.00 °C0.52
01:45:001.20 °C1010.20 hPa92.00 %0.00 °C0.52
01:30:001.30 °C1010.40 hPa92.00 %0.10 °C0.52
01:15:001.40 °C1010.20 hPa93.00 %0.40 °C0.52
01:00:001.60 °C1009.90 hPa93.00 %0.60 °C0.52
00:45:001.60 °C1010.00 hPa93.00 %0.60 °C0.52
00:30:001.80 °C1009.90 hPa93.00 %0.80 °C0.52
00:15:001.90 °C1009.80 hPa92.00 %0.70 °C0.52
00:00:001.90 °C1009.60 hPa92.00 %0.70 °C 

Permanenter Link zu dieser Seite: Wetter im Erzgebirge am 22.03.2017
Performance-Info: Die Erstellung der Seite / Statistik(en) / Tabelle(n) erforderte 5 Datenbankserver-Abfrage(n) und dauerte 103 Millisekunden. (Dieser Messwert ist von der Gesamt-Auslastung des Servers abhängig.)
Erzgebirge - Wetter | Erzgebirge - Wetter (Mobilgeräte) | Komplette Klimadatenbank